Terminal Aerodrome Forecast
Issued by NWS

Home | Current Version | Previous Version | Text Only | Print | Product List | Glossary On
Versions: 1 2 3 4 5 6 7 8 9 10 11 12
677
FTUS45 KTFX 261134
TAFHLN
TAF
KHLN 261134Z 2612/2712 VRB05KT P6SM SCT200
     FM262100 26009KT P6SM SCT080 BKN150 PROB30 2622/2703 -SHRA
      BKN080
     FM270300 VRB05KT P6SM SCT040 BKN080 PROB30 2707/2712 -SHRA
      SCT025 BKN040=

USA.gov is the U.S. government's official web portal to all federal, state and local government web resources and services.